createdAt,value
2023-01-20T00:00:54.370Z,19.55
2023-01-20T00:03:58.270Z,18.20
2023-01-20T00:07:02.554Z,15.82
2023-01-20T00:10:07.973Z,17.63
2023-01-20T00:13:11.014Z,16.92
2023-01-20T00:16:14.313Z,17.87
2023-01-20T00:19:17.567Z,16.83
2023-01-20T00:22:34.203Z,17.27
2023-01-20T00:25:37.249Z,18.47
2023-01-20T00:28:40.442Z,19.90
2023-01-20T00:31:44.492Z,17.10
2023-01-20T00:34:47.272Z,17.20
2023-01-20T00:37:50.443Z,16.50
2023-01-20T00:40:57.539Z,17.47
2023-01-20T00:44:01.304Z,17.15
2023-01-20T00:47:05.110Z,18.15
2023-01-20T00:50:11.391Z,18.73
2023-01-20T00:53:14.290Z,19.10
2023-01-20T00:56:20.720Z,17.60
2023-01-20T00:59:23.489Z,16.85
2023-01-20T01:02:26.789Z,17.62
2023-01-20T01:05:29.770Z,17.73
2023-01-20T01:08:35.563Z,15.82
2023-01-20T01:11:38.677Z,18.43
2023-01-20T01:14:42.467Z,17.00
2023-01-20T01:17:45.612Z,17.30
2023-01-20T01:20:48.691Z,18.98
2023-01-20T01:23:53.307Z,18.08
2023-01-20T01:26:56.088Z,17.47
2023-01-20T01:29:58.947Z,18.73
2023-01-20T01:33:01.752Z,17.37
2023-01-20T01:36:06.533Z,17.75
2023-01-20T01:39:09.636Z,18.33
2023-01-20T01:42:19.592Z,17.47
2023-01-20T01:45:26.192Z,17.05
2023-01-20T01:48:39.540Z,17.77
2023-01-20T01:51:58.432Z,18.23
2023-01-20T01:55:03.069Z,16.92
2023-01-20T01:58:13.830Z,17.80
2023-01-20T02:01:18.430Z,14.98
2023-01-20T02:04:24.721Z,17.60
2023-01-20T02:07:28.815Z,16.95
2023-01-20T02:10:32.420Z,17.00
2023-01-20T02:13:36.823Z,17.10
2023-01-20T02:16:59.133Z,18.20
2023-01-20T02:20:05.438Z,17.50
2023-01-20T02:23:38.453Z,17.85
2023-01-20T02:27:23.917Z,17.98
2023-01-20T02:30:51.820Z,15.67
2023-01-20T02:34:03.495Z,16.45
2023-01-20T02:37:14.655Z,16.83
2023-01-20T02:40:25.645Z,15.73
2023-01-20T02:43:48.496Z,15.10
2023-01-20T02:47:04.092Z,18.27
2023-01-20T02:50:14.063Z,17.95
2023-01-20T02:53:20.445Z,16.27
2023-01-20T02:56:28.352Z,16.48
2023-01-20T02:59:37.321Z,17.40
2023-01-20T03:02:42.933Z,16.20
2023-01-20T03:05:52.156Z,17.90
2023-01-20T03:08:56.643Z,19.98
2023-01-20T03:12:05.578Z,17.58
2023-01-20T03:15:10.070Z,17.52
2023-01-20T03:18:13.108Z,21.73
2023-01-20T03:21:19.345Z,20.12
2023-01-20T03:24:27.848Z,20.35
2023-01-20T03:27:30.722Z,16.85
2023-01-20T03:30:34.269Z,19.50
2023-01-20T03:33:37.031Z,21.00
2023-01-20T03:36:42.068Z,21.40
2023-01-20T03:39:45.149Z,20.05
2023-01-20T03:43:00.146Z,21.45
2023-01-20T03:46:14.745Z,24.37
2023-01-20T03:49:24.223Z,23.37
2023-01-20T03:52:46.502Z,30.65
2023-01-20T03:56:14.565Z,37.88
2023-01-20T03:59:20.502Z,44.78
2023-01-20T04:02:35.423Z,44.83
2023-01-20T04:05:41.923Z,28.70
2023-01-20T04:08:57.186Z,22.42
2023-01-20T04:12:00.189Z,22.45
2023-01-20T04:15:03.135Z,22.67
2023-01-20T04:18:25.743Z,21.52
2023-01-20T04:21:37.028Z,21.90
2023-01-20T04:25:00.147Z,21.40
2023-01-20T04:28:03.091Z,23.60
2023-01-20T04:31:18.102Z,26.98
2023-01-20T04:34:28.452Z,22.77
2023-01-20T04:37:33.525Z,22.73
2023-01-20T04:40:36.430Z,25.73
2023-01-20T04:43:44.186Z,23.52
2023-01-20T04:46:47.528Z,22.13
2023-01-20T04:49:51.059Z,21.90
2023-01-20T04:52:59.359Z,24.53
2023-01-20T04:56:04.119Z,22.90
2023-01-20T04:59:08.404Z,20.23
2023-01-20T05:02:13.043Z,23.20
2023-01-20T05:05:18.044Z,23.83
2023-01-20T05:08:23.864Z,23.10
2023-01-20T05:11:33.348Z,23.52
2023-01-20T05:14:37.956Z,25.95
2023-01-20T05:17:41.587Z,24.58
2023-01-20T05:20:46.316Z,22.02
2023-01-20T05:23:50.506Z,22.67
2023-01-20T05:26:53.795Z,23.70
2023-01-20T05:29:56.425Z,22.35
2023-01-20T05:32:59.470Z,24.30
2023-01-20T05:36:07.676Z,26.40
2023-01-20T05:39:11.898Z,26.97
2023-01-20T05:42:17.593Z,25.43
2023-01-20T05:45:34.411Z,26.25
2023-01-20T05:48:41.283Z,26.95
2023-01-20T05:51:45.258Z,24.25
2023-01-20T05:54:49.774Z,25.50
2023-01-20T05:57:52.886Z,30.43
2023-01-20T06:00:55.815Z,32.58
2023-01-20T06:03:58.727Z,29.58
2023-01-20T06:07:01.754Z,25.52
2023-01-20T06:10:09.027Z,27.43
2023-01-20T06:13:18.407Z,25.02
2023-01-20T06:16:23.291Z,24.30
2023-01-20T06:19:32.354Z,23.50
2023-01-20T06:22:41.423Z,27.48
2023-01-20T06:25:45.624Z,25.93
2023-01-20T06:28:49.527Z,24.67
2023-01-20T06:31:53.753Z,25.95
2023-01-20T06:35:00.984Z,23.10
2023-01-20T06:38:14.427Z,25.20
2023-01-20T06:41:25.256Z,21.20
2023-01-20T06:44:33.412Z,25.27
2023-01-20T06:47:38.184Z,22.00
2023-01-20T06:50:43.478Z,26.67
2023-01-20T06:53:48.537Z,25.45
2023-01-20T06:56:53.371Z,24.53
2023-01-20T06:59:59.353Z,24.50
2023-01-20T07:03:04.781Z,24.60
2023-01-20T07:06:14.352Z,22.02
2023-01-20T07:09:18.473Z,21.17
2023-01-20T07:12:28.101Z,21.20
2023-01-20T07:15:34.790Z,22.43
2023-01-20T07:18:42.678Z,21.37
2023-01-20T07:21:50.233Z,23.38
2023-01-20T07:24:53.867Z,21.65
2023-01-20T07:27:59.334Z,21.90
2023-01-20T07:31:11.951Z,22.13
2023-01-20T07:34:17.732Z,22.35
2023-01-20T07:37:21.820Z,19.62
2023-01-20T07:40:25.586Z,19.20
2023-01-20T07:43:29.023Z,23.10
2023-01-20T07:46:35.437Z,25.10
2023-01-20T07:49:39.109Z,30.98
2023-01-20T07:52:44.354Z,28.08
2023-01-20T07:55:48.607Z,29.30
2023-01-20T07:59:01.340Z,25.53
2023-01-20T08:02:06.485Z,30.40
2023-01-20T08:05:16.502Z,30.52
2023-01-20T08:08:19.295Z,31.52
2023-01-20T08:11:23.855Z,24.10
2023-01-20T08:14:27.585Z,25.57
2023-01-20T08:17:36.272Z,24.13
2023-01-20T08:20:41.767Z,28.60
2023-01-20T08:23:50.859Z,23.08
2023-01-20T08:26:53.522Z,21.73
2023-01-20T08:29:57.844Z,24.47
2023-01-20T08:33:08.408Z,23.70
2023-01-20T08:36:31.316Z,22.27
2023-01-20T08:39:36.470Z,18.87
2023-01-20T08:42:42.881Z,21.05
2023-01-20T08:45:48.174Z,17.20
2023-01-20T08:48:53.045Z,18.60
2023-01-20T08:52:10.730Z,21.67
2023-01-20T08:55:17.424Z,20.17
2023-01-20T08:58:27.634Z,23.00
2023-01-20T09:01:38.346Z,26.83
2023-01-20T09:04:42.531Z,21.23
2023-01-20T09:07:47.253Z,22.98
2023-01-20T09:11:09.665Z,23.52
2023-01-20T09:14:25.679Z,22.50
2023-01-20T09:17:29.027Z,27.30
2023-01-20T09:20:32.478Z,23.93
2023-01-20T09:23:42.500Z,24.45
2023-01-20T09:26:52.381Z,22.48
2023-01-20T09:30:09.614Z,31.35
2023-01-20T09:33:15.646Z,20.83
2023-01-20T09:36:18.616Z,21.23
2023-01-20T09:39:41.115Z,23.05
2023-01-20T09:43:34.064Z,17.20
2023-01-20T09:46:40.141Z,18.15
2023-01-20T09:50:09.039Z,17.87
2023-01-20T09:53:46.769Z,20.93
2023-01-20T09:56:55.511Z,21.10
2023-01-20T10:00:11.793Z,21.73
2023-01-20T10:03:47.329Z,19.67
2023-01-20T10:06:59.911Z,19.43
2023-01-20T10:10:26.603Z,19.57
2023-01-20T10:13:41.088Z,20.17
2023-01-20T10:16:54.470Z,20.60
2023-01-20T10:20:04.581Z,19.58
2023-01-20T10:23:15.455Z,21.13
2023-01-20T10:26:39.311Z,21.33
2023-01-20T10:29:48.017Z,17.73
2023-01-20T10:33:01.470Z,18.52
2023-01-20T10:36:15.859Z,20.00
2023-01-20T10:39:35.367Z,20.17
2023-01-20T10:42:40.523Z,17.73
2023-01-20T10:45:59.021Z,18.12
2023-01-20T10:49:37.201Z,17.02
2023-01-20T10:53:02.380Z,16.95
2023-01-20T10:56:25.901Z,21.57
2023-01-20T10:59:35.382Z,21.20
2023-01-20T11:02:50.530Z,17.77
2023-01-20T11:05:54.306Z,19.25
2023-01-20T11:09:19.666Z,19.70
2023-01-20T11:12:27.618Z,17.47
2023-01-20T11:15:37.379Z,17.73
2023-01-20T11:18:40.111Z,18.65
2023-01-20T11:21:47.285Z,19.45
2023-01-20T11:24:56.043Z,17.87
2023-01-20T11:28:18.121Z,16.37
2023-01-20T11:31:33.077Z,15.97
2023-01-20T11:34:37.169Z,16.60
2023-01-20T11:37:45.301Z,13.45
2023-01-20T11:40:57.412Z,13.73
2023-01-20T11:44:01.576Z,14.87
2023-01-20T11:47:25.082Z,15.30
2023-01-20T11:50:36.727Z,13.05
2023-01-20T11:53:39.913Z,14.52
2023-01-20T11:56:45.771Z,15.38
2023-01-20T11:59:58.201Z,16.10
2023-01-20T12:03:20.314Z,14.53
2023-01-20T12:06:44.108Z,13.32
2023-01-20T12:09:53.521Z,12.45
2023-01-20T12:13:18.568Z,12.02
2023-01-20T12:16:32.240Z,12.43
2023-01-20T12:19:55.682Z,12.50
2023-01-20T12:23:26.109Z,10.82
2023-01-20T12:26:36.597Z,12.25
2023-01-20T12:29:47.280Z,12.02
2023-01-20T12:32:50.946Z,13.00
2023-01-20T12:36:25.301Z,12.17
2023-01-20T12:39:51.913Z,13.73
2023-01-20T12:43:19.618Z,12.88
2023-01-20T12:46:23.671Z,13.85
2023-01-20T12:49:36.636Z,12.20
2023-01-20T12:52:53.372Z,12.63
2023-01-20T12:56:34.629Z,13.52
2023-01-20T13:00:17.999Z,10.98
2023-01-20T13:03:56.471Z,11.60
2023-01-20T13:07:31.330Z,11.00
2023-01-20T13:10:51.206Z,15.17
2023-01-20T13:14:12.023Z,12.32
2023-01-20T13:17:40.248Z,15.80
2023-01-20T13:20:50.728Z,11.68
2023-01-20T13:24:02.617Z,11.57
2023-01-20T13:27:33.223Z,12.77
2023-01-20T13:30:48.385Z,11.48
2023-01-20T13:33:56.481Z,12.40
2023-01-20T13:37:07.425Z,12.77
2023-01-20T13:40:50.514Z,24.57
2023-01-20T13:44:02.208Z,26.53
2023-01-20T13:47:11.068Z,28.83
2023-01-20T13:50:33.905Z,24.20
2023-01-20T13:53:37.848Z,28.12
2023-01-20T13:56:50.215Z,27.10
2023-01-20T13:59:57.553Z,27.00
2023-01-20T14:03:14.640Z,27.37
2023-01-20T14:06:24.130Z,27.73
2023-01-20T14:09:27.886Z,30.27
2023-01-20T14:12:43.511Z,30.27
2023-01-20T14:15:58.406Z,30.27
2023-01-20T14:19:33.245Z,31.62
2023-01-20T14:22:38.494Z,29.45
2023-01-20T14:26:00.322Z,30.17
2023-01-20T14:29:14.183Z,26.17
2023-01-20T14:32:34.376Z,26.33
2023-01-20T14:35:51.776Z,24.12
2023-01-20T14:38:58.934Z,25.27
2023-01-20T14:42:14.213Z,25.25
2023-01-20T14:45:32.522Z,26.43
2023-01-20T14:48:59.545Z,23.60
2023-01-20T14:52:13.356Z,26.30
2023-01-20T14:55:47.212Z,22.67
2023-01-20T14:59:00.710Z,25.65
2023-01-20T15:02:15.732Z,26.33
2023-01-20T15:05:28.788Z,26.48
2023-01-20T15:08:39.335Z,27.23
2023-01-20T15:11:51.320Z,25.08
2023-01-20T15:15:21.950Z,24.67
2023-01-20T15:18:27.312Z,25.67
2023-01-20T15:21:38.440Z,30.73
2023-01-20T15:24:47.626Z,29.30
2023-01-20T15:27:56.617Z,25.92
2023-01-20T15:31:13.635Z,25.45
2023-01-20T15:34:32.401Z,29.07
2023-01-20T15:37:45.248Z,28.05
2023-01-20T15:40:56.483Z,29.25
2023-01-20T15:44:18.364Z,28.27
2023-01-20T15:47:35.868Z,29.92
2023-01-20T15:50:42.172Z,27.40
2023-01-20T15:53:47.385Z,25.20
2023-01-20T15:56:50.559Z,28.40
2023-01-20T16:00:07.265Z,27.58
2023-01-20T16:03:16.389Z,29.12
2023-01-20T16:06:41.185Z,31.30
2023-01-20T16:09:53.251Z,32.20
2023-01-20T16:13:16.456Z,29.95
2023-01-20T16:16:34.264Z,28.70
2023-01-20T16:19:54.223Z,27.48
2023-01-20T16:23:19.205Z,30.47
2023-01-20T16:26:36.240Z,30.65
2023-01-20T16:29:47.216Z,27.98
2023-01-20T16:32:52.213Z,31.73
2023-01-20T16:35:57.267Z,32.22
2023-01-20T16:39:09.164Z,29.20
2023-01-20T16:42:23.212Z,30.45
2023-01-20T16:45:34.798Z,33.33
2023-01-20T16:48:46.232Z,29.52
2023-01-20T16:52:02.239Z,33.67
2023-01-20T16:55:22.389Z,29.35
2023-01-20T16:58:27.517Z,27.20
2023-01-20T17:01:33.274Z,32.55
2023-01-20T17:04:39.001Z,33.58
2023-01-20T17:07:58.281Z,31.93
2023-01-20T17:11:05.254Z,31.98
2023-01-20T17:14:13.298Z,29.87
2023-01-20T17:17:18.557Z,36.20
2023-01-20T17:20:35.549Z,31.80
2023-01-20T17:23:46.734Z,30.20
2023-01-20T17:26:58.194Z,31.20
2023-01-20T17:30:09.330Z,30.02
2023-01-20T17:33:17.373Z,32.00
2023-01-20T17:36:38.188Z,29.77
2023-01-20T17:39:47.960Z,31.17
2023-01-20T17:42:59.945Z,31.12
2023-01-20T17:46:20.703Z,32.13
2023-01-20T17:49:38.170Z,32.40
2023-01-20T17:52:55.990Z,30.75
2023-01-20T17:56:11.882Z,30.70
2023-01-20T17:59:27.518Z,31.58
2023-01-20T18:02:32.387Z,31.60
2023-01-20T18:05:44.204Z,33.75
2023-01-20T18:09:09.219Z,33.07
2023-01-20T18:12:16.499Z,30.15
2023-01-20T18:15:21.489Z,31.33
2023-01-20T18:18:32.169Z,33.50
2023-01-20T18:21:39.403Z,28.60
2023-01-20T18:24:52.316Z,30.73
2023-01-20T18:28:03.303Z,30.95
2023-01-20T18:31:19.260Z,28.73
2023-01-20T18:34:28.322Z,29.42
2023-01-20T18:37:34.432Z,27.77
2023-01-20T18:40:48.637Z,26.60
2023-01-20T18:44:06.577Z,30.05
2023-01-20T18:47:24.216Z,30.95
2023-01-20T18:50:29.315Z,30.25
2023-01-20T18:53:38.801Z,29.48
2023-01-20T18:56:50.811Z,24.77
2023-01-20T19:00:06.296Z,27.80
2023-01-20T19:03:15.371Z,30.25
2023-01-20T19:06:23.449Z,30.37
2023-01-20T19:09:28.282Z,28.23
2023-01-20T19:12:33.339Z,27.37
2023-01-20T19:15:38.286Z,29.67
2023-01-20T19:18:59.551Z,28.95
2023-01-20T19:22:09.946Z,28.90
2023-01-20T19:25:18.378Z,28.48
2023-01-20T19:28:25.313Z,26.20
2023-01-20T19:31:34.350Z,28.65
2023-01-20T19:34:40.323Z,31.33
2023-01-20T19:37:54.761Z,30.12
2023-01-20T19:41:17.313Z,32.78
2023-01-20T19:44:21.692Z,32.77
2023-01-20T19:47:31.573Z,30.60
2023-01-20T19:50:42.278Z,29.33
2023-01-20T19:53:57.186Z,30.30
2023-01-20T19:57:05.311Z,24.12
2023-01-20T20:00:12.443Z,22.73
2023-01-20T20:03:21.762Z,26.90
2023-01-20T20:06:35.949Z,27.17
2023-01-20T20:09:41.082Z,27.02
2023-01-20T20:12:47.333Z,26.00
2023-01-20T20:16:02.091Z,27.03
2023-01-20T20:19:18.910Z,28.90
2023-01-20T20:22:26.337Z,23.23
2023-01-20T20:25:33.708Z,25.90
2023-01-20T20:28:53.185Z,23.50
2023-01-20T20:32:02.438Z,27.23
2023-01-20T20:35:17.273Z,26.35
2023-01-20T20:38:21.797Z,22.60
2023-01-20T20:41:32.068Z,26.17
2023-01-20T20:44:42.312Z,25.10
2023-01-20T20:47:49.334Z,24.02
2023-01-20T20:51:09.462Z,27.37
2023-01-20T20:54:17.347Z,25.30
2023-01-20T20:57:21.182Z,21.27
2023-01-20T21:00:30.496Z,23.58
2023-01-20T21:03:36.606Z,27.87
2023-01-20T21:06:48.405Z,25.90
2023-01-20T21:09:54.538Z,22.42
2023-01-20T21:13:03.226Z,25.20
2023-01-20T21:16:15.913Z,25.92
2023-01-20T21:19:33.264Z,26.02
2023-01-20T21:22:41.594Z,24.60
2023-01-20T21:25:51.432Z,25.85
2023-01-20T21:29:06.469Z,23.97
2023-01-20T21:32:15.201Z,26.17
2023-01-20T21:35:27.406Z,23.50
2023-01-20T21:38:32.981Z,23.67
2023-01-20T21:41:48.172Z,23.05
2023-01-20T21:44:53.418Z,22.30
2023-01-20T21:48:16.903Z,25.80
2023-01-20T21:51:39.152Z,27.35
2023-01-20T21:54:45.510Z,24.92
2023-01-20T21:57:51.552Z,23.92
2023-01-20T22:00:56.805Z,24.60
2023-01-20T22:04:07.184Z,27.02
2023-01-20T22:07:11.310Z,27.83
2023-01-20T22:10:21.374Z,26.30
2023-01-20T22:13:29.246Z,25.83
2023-01-20T22:16:34.332Z,25.42
2023-01-20T22:19:38.261Z,25.50
2023-01-20T22:22:44.954Z,23.02
2023-01-20T22:25:56.652Z,24.52
2023-01-20T22:29:12.613Z,25.43
2023-01-20T22:32:18.909Z,25.75
2023-01-20T22:35:27.363Z,24.10
2023-01-20T22:38:31.004Z,23.67
2023-01-20T22:41:37.474Z,22.10
2023-01-20T22:44:42.146Z,23.70
2023-01-20T22:47:50.138Z,25.10
2023-01-20T22:51:10.604Z,27.23
2023-01-20T22:54:15.317Z,28.00
2023-01-20T22:57:18.521Z,23.77
2023-01-20T23:00:25.139Z,23.60
2023-01-20T23:03:28.848Z,24.23
2023-01-20T23:06:40.224Z,23.80
2023-01-20T23:09:46.907Z,26.80
2023-01-20T23:12:55.147Z,23.52
2023-01-20T23:15:59.629Z,24.70
2023-01-20T23:19:03.694Z,23.10
2023-01-20T23:22:07.732Z,24.83
2023-01-20T23:25:10.820Z,22.77
2023-01-20T23:28:17.062Z,24.52
2023-01-20T23:31:28.538Z,22.90
2023-01-20T23:34:32.546Z,21.65
2023-01-20T23:37:39.287Z,21.12
2023-01-20T23:40:43.455Z,23.05
2023-01-20T23:43:48.041Z,26.05
2023-01-20T23:46:51.106Z,30.00
2023-01-20T23:49:53.986Z,25.20
2023-01-20T23:52:58.270Z,27.62
2023-01-20T23:56:10.100Z,22.70
2023-01-20T23:59:13.280Z,26.80
